Strona główna
METAR-TAF:

METAR-TAF

Lotnisko :

Winchester Regional Airport

Winchester, Wirginia, Stany Zjednoczone

Szerokość geograficzna: 39-09N, Długość geograficzna: 078-09W, wysokość: 222 m

Aktualna obserwacja pogody

Raport powstał 34 minut temu, godzina 01:15 UTC
Wiatr 7 kt od zachód
Temperatura 27°C
Wilgotność 51%
Ciśnienie 1008 hPa
Widzialność: 16.1 km
bezchmurnie

METAR: KOKV 040115Z AUTO 26007KT 10SM CLR 27/16 A2976 RMK AO2

czas: 21:49 (01:49 UTC)


TAF: brakujący

Obserwacja i prognoza pogody dla ponad 4000 lotnisk (raport METAR i TAF).

Dostępne stacje oznaczono żółtymi i czerwonymi punktami na mapie.

Najedź kursorem aby zobaczyć nazwę stacji.

Kliknij aby zobaczyć obserwacje i prognozy pogody.

Aby zmienić mapę: kliknij na zielony przycisk z czarnym krzyżykiem, aby powiększyć; na zielony przycisk z myślnikiem, aby pomniejszyć; na zielone strzałki, aby przejść do map sąsiednich.


METAR-TAF: